sensor_id;sensor_type;location;lat;lon;timestamp;pressure;altitude;pressure_sealevel;temperature;humidity
46223;BME280;31943;51.410;7.564;2023-04-30T00:00:36;100941.44;;;9.03;63.51
46223;BME280;31943;51.410;7.564;2023-04-30T00:03:02;100942.19;;;8.99;63.20
46223;BME280;31943;51.410;7.564;2023-04-30T00:05:28;100939.47;;;8.95;63.25
46223;BME280;31943;51.410;7.564;2023-04-30T00:07:59;100946.34;;;8.93;63.51
46223;BME280;31943;51.410;7.564;2023-04-30T00:10:25;100943.63;;;8.88;63.35
46223;BME280;31943;51.410;7.564;2023-04-30T00:12:53;100948.75;;;8.85;63.47
46223;BME280;31943;51.410;7.564;2023-04-30T00:15:19;100955.63;;;8.83;63.54
46223;BME280;31943;51.410;7.564;2023-04-30T00:17:45;100945.97;;;8.79;63.28
46223;BME280;31943;51.410;7.564;2023-04-30T00:20:11;100945.81;;;8.74;63.67
46223;BME280;31943;51.410;7.564;2023-04-30T00:22:37;100949.22;;;8.71;63.78
46223;BME280;31943;51.410;7.564;2023-04-30T00:25:05;100948.34;;;8.71;63.60
46223;BME280;31943;51.410;7.564;2023-04-30T00:27:30;100950.84;;;8.68;63.84
46223;BME280;31943;51.410;7.564;2023-04-30T00:29:58;100953.38;;;8.65;63.21
46223;BME280;31943;51.410;7.564;2023-04-30T00:32:24;100952.41;;;8.61;63.61
46223;BME280;31943;51.410;7.564;2023-04-30T00:34:50;100952.28;;;8.57;63.23
46223;BME280;31943;51.410;7.564;2023-04-30T00:37:16;100958.19;;;8.51;63.36
46223;BME280;31943;51.410;7.564;2023-04-30T00:39:41;100958.03;;;8.46;63.06
46223;BME280;31943;51.410;7.564;2023-04-30T00:42:08;100960.41;;;8.40;63.23
46223;BME280;31943;51.410;7.564;2023-04-30T00:44:34;100959.41;;;8.35;63.56
46223;BME280;31943;51.410;7.564;2023-04-30T00:47:02;100963.56;;;8.30;63.39
46223;BME280;31943;51.410;7.564;2023-04-30T00:49:27;100954.84;;;8.28;63.60
46223;BME280;31943;51.410;7.564;2023-04-30T00:51:53;100953.06;;;8.27;63.86
46223;BME280;31943;51.410;7.564;2023-04-30T00:54:19;100965.13;;;8.23;63.37
46223;BME280;31943;51.410;7.564;2023-04-30T00:56:45;100961.53;;;8.20;63.57
46223;BME280;31943;51.410;7.564;2023-04-30T00:59:11;100956.28;;;8.18;63.82
46223;BME280;31943;51.410;7.564;2023-04-30T01:01:37;100958.81;;;8.17;63.27
46223;BME280;31943;51.410;7.564;2023-04-30T01:04:06;100958.75;;;8.14;63.38
46223;BME280;31943;51.410;7.564;2023-04-30T01:06:31;100964.63;;;8.08;63.18
46223;BME280;31943;51.410;7.564;2023-04-30T01:08:58;100962.72;;;8.02;63.08
46223;BME280;31943;51.410;7.564;2023-04-30T01:11:30;100967.00;;;8.00;63.37
46223;BME280;31943;51.410;7.564;2023-04-30T01:14:03;100964.28;;;7.97;63.04
46223;BME280;31943;51.410;7.564;2023-04-30T01:16:35;100955.41;;;7.90;63.30
46223;BME280;31943;51.410;7.564;2023-04-30T01:19:09;100958.81;;;7.88;63.16
46223;BME280;31943;51.410;7.564;2023-04-30T01:21:42;100959.50;;;7.84;62.97
46223;BME280;31943;51.410;7.564;2023-04-30T01:24:23;100955.16;;;7.83;62.91
46223;BME280;31943;51.410;7.564;2023-04-30T01:27:05;100948.91;;;7.78;63.42
46223;BME280;31943;51.410;7.564;2023-04-30T01:29:33;100946.19;;;7.73;63.35
46223;BME280;31943;51.410;7.564;2023-04-30T01:32:00;100953.72;;;7.65;63.10
46223;BME280;31943;51.410;7.564;2023-04-30T01:34:26;100953.63;;;7.62;63.33
46223;BME280;31943;51.410;7.564;2023-04-30T01:37:05;100959.72;;;7.63;63.82
46223;BME280;31943;51.410;7.564;2023-04-30T01:39:56;100960.59;;;7.63;63.64
46223;BME280;31943;51.410;7.564;2023-04-30T01:42:29;100960.44;;;7.59;63.93
46223;BME280;31943;51.410;7.564;2023-04-30T01:45:16;100960.38;;;7.57;63.90
46223;BME280;31943;51.410;7.564;2023-04-30T01:47:50;100961.94;;;7.52;63.47
46223;BME280;31943;51.410;7.564;2023-04-30T01:50:24;100960.94;;;7.48;63.72
46223;BME280;31943;51.410;7.564;2023-04-30T01:52:51;100961.72;;;7.46;63.67
46223;BME280;31943;51.410;7.564;2023-04-30T01:55:22;100961.72;;;7.46;63.60
46223;BME280;31943;51.410;7.564;2023-04-30T01:57:55;100955.66;;;7.45;63.63
46223;BME280;31943;51.410;7.564;2023-04-30T02:00:22;100957.31;;;7.43;63.22
46223;BME280;31943;51.410;7.564;2023-04-30T02:02:48;100956.28;;;7.38;63.44
46223;BME280;31943;51.410;7.564;2023-04-30T02:05:13;100957.81;;;7.33;63.30
46223;BME280;31943;51.410;7.564;2023-04-30T02:07:40;100956.13;;;7.33;63.74
46223;BME280;31943;51.410;7.564;2023-04-30T02:10:07;100966.50;;;7.33;63.80
46223;BME280;31943;51.410;7.564;2023-04-30T02:12:33;100953.53;;;7.33;63.77
46223;BME280;31943;51.410;7.564;2023-04-30T02:15:01;100955.22;;;7.33;63.64
46223;BME280;31943;51.410;7.564;2023-04-30T02:17:28;100956.78;;;7.28;63.31
46223;BME280;31943;51.410;7.564;2023-04-30T02:19:54;100952.38;;;7.25;63.51
46223;BME280;31943;51.410;7.564;2023-04-30T02:22:20;100954.06;;;7.23;63.50
46223;BME280;31943;51.410;7.564;2023-04-30T02:24:45;100959.13;;;7.20;63.34
46223;BME280;31943;51.410;7.564;2023-04-30T02:27:12;100961.66;;;7.19;63.67
46223;BME280;31943;51.410;7.564;2023-04-30T02:29:38;100960.66;;;7.15;63.30
46223;BME280;31943;51.410;7.564;2023-04-30T02:32:04;100966.56;;;7.11;63.48
46223;BME280;31943;51.410;7.564;2023-04-30T02:34:32;100969.88;;;7.07;63.39
46223;BME280;31943;51.410;7.564;2023-04-30T02:36:57;100981.13;;;7.06;63.64
46223;BME280;31943;51.410;7.564;2023-04-30T02:39:23;100980.28;;;7.07;63.82
46223;BME280;31943;51.410;7.564;2023-04-30T02:41:49;100976.75;;;7.05;63.77
46223;BME280;31943;51.410;7.564;2023-04-30T02:44:15;100971.50;;;7.03;63.92
46223;BME280;31943;51.410;7.564;2023-04-30T02:46:40;100978.41;;;7.03;63.93
46223;BME280;31943;51.410;7.564;2023-04-30T02:49:07;100979.19;;;7.00;63.95
46223;BME280;31943;51.410;7.564;2023-04-30T02:51:35;100975.53;;;6.95;63.36
46223;BME280;31943;51.410;7.564;2023-04-30T02:54:01;100976.25;;;6.91;63.48
46223;BME280;31943;51.410;7.564;2023-04-30T02:56:26;100968.41;;;6.89;63.36
46223;BME280;31943;51.410;7.564;2023-04-30T02:58:52;100970.78;;;6.83;63.48
46223;BME280;31943;51.410;7.564;2023-04-30T03:01:18;100969.72;;;6.78;63.52
46223;BME280;31943;51.410;7.564;2023-04-30T03:03:44;100967.00;;;6.75;63.62
46223;BME280;31943;51.410;7.564;2023-04-30T03:06:09;100965.19;;;6.72;63.65
46223;BME280;31943;51.410;7.564;2023-04-30T03:08:36;100981.50;;;6.70;63.67
46223;BME280;31943;51.410;7.564;2023-04-30T03:11:03;100970.91;;;6.64;63.78
46223;BME280;31943;51.410;7.564;2023-04-30T03:13:29;100976.09;;;6.64;63.86
46223;BME280;31943;51.410;7.564;2023-04-30T03:15:57;100976.88;;;6.61;64.05
46223;BME280;31943;51.410;7.564;2023-04-30T03:18:29;100970.69;;;6.58;63.81
46223;BME280;31943;51.410;7.564;2023-04-30T03:20:59;100975.75;;;6.54;63.64
46223;BME280;31943;51.410;7.564;2023-04-30T03:23:26;100971.34;;;6.52;63.70
46223;BME280;31943;51.410;7.564;2023-04-30T03:25:54;100968.69;;;6.50;64.01
46223;BME280;31943;51.410;7.564;2023-04-30T03:28:19;100976.59;;;6.53;64.46
46223;BME280;31943;51.410;7.564;2023-04-30T03:30:45;100969.88;;;6.59;64.62
46223;BME280;31943;51.410;7.564;2023-04-30T03:33:11;100979.47;;;6.61;65.10
46223;BME280;31943;51.410;7.564;2023-04-30T03:35:36;100970.97;;;6.65;64.98
46223;BME280;31943;51.410;7.564;2023-04-30T03:38:02;100971.84;;;6.66;64.60
46223;BME280;31943;51.410;7.564;2023-04-30T03:40:28;100968.44;;;6.67;64.60
46223;BME280;31943;51.410;7.564;2023-04-30T03:42:55;100960.59;;;6.65;64.83
46223;BME280;31943;51.410;7.564;2023-04-30T03:45:24;100963.06;;;6.62;64.30
46223;BME280;31943;51.410;7.564;2023-04-30T03:47:50;100957.84;;;6.61;64.50
46223;BME280;31943;51.410;7.564;2023-04-30T03:50:17;100961.25;;;6.60;64.46
46223;BME280;31943;51.410;7.564;2023-04-30T03:52:42;100956.00;;;6.58;64.17
46223;BME280;31943;51.410;7.564;2023-04-30T03:55:09;100964.56;;;6.56;64.44
46223;BME280;31943;51.410;7.564;2023-04-30T03:57:34;100960.19;;;6.54;64.43
46223;BME280;31943;51.410;7.564;2023-04-30T04:00:02;100967.94;;;6.53;64.08
46223;BME280;31943;51.410;7.564;2023-04-30T04:02:27;100974.78;;;6.51;64.45
46223;BME280;31943;51.410;7.564;2023-04-30T04:04:56;100971.25;;;6.49;63.96
46223;BME280;31943;51.410;7.564;2023-04-30T04:07:21;100965.03;;;6.45;64.30
46223;BME280;31943;51.410;7.564;2023-04-30T04:09:47;100970.09;;;6.42;64.01
46223;BME280;31943;51.410;7.564;2023-04-30T04:12:13;100964.81;;;6.39;63.90
46223;BME280;31943;51.410;7.564;2023-04-30T04:14:39;100969.06;;;6.37;63.75
46223;BME280;31943;51.410;7.564;2023-04-30T04:17:06;100973.34;;;6.37;63.91
46223;BME280;31943;51.410;7.564;2023-04-30T04:19:32;100971.66;;;6.37;64.08
46223;BME280;31943;51.410;7.564;2023-04-30T04:21:58;100975.94;;;6.37;64.29
46223;BME280;31943;51.410;7.564;2023-04-30T04:24:24;100987.22;;;6.37;64.32
46223;BME280;31943;51.410;7.564;2023-04-30T04:26:50;100990.59;;;6.36;64.12
46223;BME280;31943;51.410;7.564;2023-04-30T04:29:16;100985.28;;;6.33;63.85
46223;BME280;31943;51.410;7.564;2023-04-30T04:31:41;100993.03;;;6.31;64.12
46223;BME280;31943;51.410;7.564;2023-04-30T04:34:11;100994.78;;;6.32;63.94
46223;BME280;31943;51.410;7.564;2023-04-30T04:36:37;100996.50;;;6.32;64.11
46223;BME280;31943;51.410;7.564;2023-04-30T04:39:03;100998.25;;;6.33;63.80
46223;BME280;31943;51.410;7.564;2023-04-30T04:41:28;100996.56;;;6.33;63.74
46223;BME280;31943;51.410;7.564;2023-04-30T04:43:54;101003.41;;;6.31;63.55
46223;BME280;31943;51.410;7.564;2023-04-30T04:46:20;101000.81;;;6.31;63.75
46223;BME280;31943;51.410;7.564;2023-04-30T04:48:46;101005.09;;;6.31;63.92
46223;BME280;31943;51.410;7.564;2023-04-30T04:51:14;101002.69;;;6.36;64.16
46223;BME280;31943;51.410;7.564;2023-04-30T04:53:39;101000.03;;;6.34;64.41
46223;BME280;31943;51.410;7.564;2023-04-30T04:56:06;100998.31;;;6.34;64.08
46223;BME280;31943;51.410;7.564;2023-04-30T04:58:31;100993.13;;;6.34;64.60
46223;BME280;31943;51.410;7.564;2023-04-30T05:00:57;100989.78;;;6.37;64.68
46223;BME280;31943;51.410;7.564;2023-04-30T05:03:23;100995.16;;;6.42;65.04
46223;BME280;31943;51.410;7.564;2023-04-30T05:05:48;100995.25;;;6.45;65.09
46223;BME280;31943;51.410;7.564;2023-04-30T05:08:15;101003.00;;;6.43;65.09
46223;BME280;31943;51.410;7.564;2023-04-30T05:10:41;101011.47;;;6.39;65.37
46223;BME280;31943;51.410;7.564;2023-04-30T05:13:07;101010.56;;;6.39;65.73
46223;BME280;31943;51.410;7.564;2023-04-30T05:15:32;101011.50;;;6.41;65.87
46223;BME280;31943;51.410;7.564;2023-04-30T05:17:58;101017.63;;;6.43;65.96
46223;BME280;31943;51.410;7.564;2023-04-30T05:20:24;101008.28;;;6.46;65.98
46223;BME280;31943;51.410;7.564;2023-04-30T05:22:49;101012.00;;;6.53;66.27
46223;BME280;31943;51.410;7.564;2023-04-30T05:25:17;101016.56;;;6.59;66.33
46223;BME280;31943;51.410;7.564;2023-04-30T05:27:43;101020.09;;;6.61;66.62
46223;BME280;31943;51.410;7.564;2023-04-30T05:30:09;101017.50;;;6.61;66.35
46223;BME280;31943;51.410;7.564;2023-04-30T05:32:35;101014.91;;;6.61;66.59
46223;BME280;31943;51.410;7.564;2023-04-30T05:35:01;101014.00;;;6.60;66.75
46223;BME280;31943;51.410;7.564;2023-04-30T05:37:27;101016.72;;;6.63;67.15
46223;BME280;31943;51.410;7.564;2023-04-30T05:39:53;101018.59;;;6.67;67.05
46223;BME280;31943;51.410;7.564;2023-04-30T05:42:22;101021.13;;;6.66;67.07
46223;BME280;31943;51.410;7.564;2023-04-30T05:44:49;101027.38;;;6.71;67.19
46223;BME280;31943;51.410;7.564;2023-04-30T05:47:15;101027.47;;;6.74;67.21
46223;BME280;31943;51.410;7.564;2023-04-30T05:49:41;101025.16;;;6.80;67.10
46223;BME280;31943;51.410;7.564;2023-04-30T05:52:06;101028.84;;;6.87;67.54
46223;BME280;31943;51.410;7.564;2023-04-30T05:54:32;101022.13;;;6.92;67.44
46223;BME280;31943;51.410;7.564;2023-04-30T05:56:58;101024.03;;;6.98;67.60
46223;BME280;31943;51.410;7.564;2023-04-30T05:59:26;101022.38;;;7.00;67.88
46223;BME280;31943;51.410;7.564;2023-04-30T06:01:52;101023.28;;;7.00;68.01
46223;BME280;31943;51.410;7.564;2023-04-30T06:04:18;101025.94;;;7.02;68.26
46223;BME280;31943;51.410;7.564;2023-04-30T06:06:44;101022.50;;;7.03;68.88
46223;BME280;31943;51.410;7.564;2023-04-30T06:09:10;101028.47;;;7.00;68.99
46223;BME280;31943;51.410;7.564;2023-04-30T06:11:36;101030.22;;;7.01;69.06
46223;BME280;31943;51.410;7.564;2023-04-30T06:14:02;101028.63;;;7.05;69.48
46223;BME280;31943;51.410;7.564;2023-04-30T06:16:30;101035.78;;;7.10;69.56
46223;BME280;31943;51.410;7.564;2023-04-30T06:18:56;101026.59;;;7.20;69.68
46223;BME280;31943;51.410;7.564;2023-04-30T06:21:22;101029.84;;;7.39;69.62
46223;BME280;31943;51.410;7.564;2023-04-30T06:23:48;101025.19;;;7.54;69.41
46223;BME280;31943;51.410;7.564;2023-04-30T06:26:15;101026.66;;;7.71;69.59
46223;BME280;31943;51.410;7.564;2023-04-30T06:28:41;101027.31;;;7.90;69.20
46223;BME280;31943;51.410;7.564;2023-04-30T06:31:06;101024.25;;;8.03;69.12
46223;BME280;31943;51.410;7.564;2023-04-30T06:33:36;101030.81;;;8.18;69.61
46223;BME280;31943;51.410;7.564;2023-04-30T06:36:02;101022.59;;;8.32;69.13
46223;BME280;31943;51.410;7.564;2023-04-30T06:38:27;101018.69;;;8.45;69.09
46223;BME280;31943;51.410;7.564;2023-04-30T06:40:54;101021.84;;;8.64;69.46
46223;BME280;31943;51.410;7.564;2023-04-30T06:43:20;101017.34;;;8.87;69.09
46223;BME280;31943;51.410;7.564;2023-04-30T06:45:46;101016.19;;;9.07;68.81
46223;BME280;31943;51.410;7.564;2023-04-30T06:48:12;101013.41;;;9.32;68.43
46223;BME280;31943;51.410;7.564;2023-04-30T06:50:40;101004.22;;;9.46;68.31
46223;BME280;31943;51.410;7.564;2023-04-30T06:53:06;100997.78;;;9.65;67.83
46223;BME280;31943;51.410;7.564;2023-04-30T06:55:32;101000.88;;;9.85;67.23
46223;BME280;31943;51.410;7.564;2023-04-30T06:57:58;100997.94;;;10.06;67.33
46223;BME280;31943;51.410;7.564;2023-04-30T07:00:25;101000.09;;;10.24;66.47
46223;BME280;31943;51.410;7.564;2023-04-30T07:02:52;101003.00;;;10.36;66.31
46223;BME280;31943;51.410;7.564;2023-04-30T07:05:18;101004.22;;;10.51;65.83
46223;BME280;31943;51.410;7.564;2023-04-30T07:07:45;100995.91;;;10.68;65.70
46223;BME280;31943;51.410;7.564;2023-04-30T07:10:11;101004.06;;;10.85;65.23
46223;BME280;31943;51.410;7.564;2023-04-30T07:12:37;101003.47;;;10.99;65.01
46223;BME280;31943;51.410;7.564;2023-04-30T07:15:04;101005.31;;;11.03;64.21
46223;BME280;31943;51.410;7.564;2023-04-30T07:17:30;101006.34;;;11.10;63.95
46223;BME280;31943;51.410;7.564;2023-04-30T07:19:56;100998.00;;;11.29;63.88
46223;BME280;31943;51.410;7.564;2023-04-30T07:22:21;100997.38;;;11.44;62.93
46223;BME280;31943;51.410;7.564;2023-04-30T07:24:49;100995.88;;;11.55;62.68
46223;BME280;31943;51.410;7.564;2023-04-30T07:27:15;100993.44;;;11.67;62.43
46223;BME280;31943;51.410;7.564;2023-04-30T07:29:40;100991.16;;;11.86;62.33
46223;BME280;31943;51.410;7.564;2023-04-30T07:32:06;100990.59;;;12.02;61.79
46223;BME280;31943;51.410;7.564;2023-04-30T07:34:32;100995.97;;;12.12;61.47
46223;BME280;31943;51.410;7.564;2023-04-30T07:36:59;100994.38;;;12.23;61.03
46223;BME280;31943;51.410;7.564;2023-04-30T07:39:26;100995.44;;;12.36;60.39
46223;BME280;31943;51.410;7.564;2023-04-30T07:41:54;101000.03;;;12.51;59.32
46223;BME280;31943;51.410;7.564;2023-04-30T07:44:20;100994.13;;;12.65;59.33
46223;BME280;31943;51.410;7.564;2023-04-30T07:46:47;100993.44;;;12.79;59.18
46223;BME280;31943;51.410;7.564;2023-04-30T07:49:14;100993.66;;;12.96;58.62
46223;BME280;31943;51.410;7.564;2023-04-30T07:51:40;100994.69;;;13.10;58.53
46223;BME280;31943;51.410;7.564;2023-04-30T07:54:06;100994.88;;;13.25;58.36
46223;BME280;31943;51.410;7.564;2023-04-30T07:56:31;100999.31;;;13.30;58.03
46223;BME280;31943;51.410;7.564;2023-04-30T07:59:00;101002.09;;;13.48;57.75
46223;BME280;31943;51.410;7.564;2023-04-30T08:01:27;101002.38;;;13.74;57.04
46223;BME280;31943;51.410;7.564;2023-04-30T08:03:53;101005.06;;;13.80;55.78
46223;BME280;31943;51.410;7.564;2023-04-30T08:06:19;101002.47;;;13.87;56.14
46223;BME280;31943;51.410;7.564;2023-04-30T08:08:45;101007.84;;;14.02;55.82
46223;BME280;31943;51.410;7.564;2023-04-30T08:11:10;100999.09;;;14.03;54.90
46223;BME280;31943;51.410;7.564;2023-04-30T08:13:36;101005.34;;;14.16;55.12
46223;BME280;31943;51.410;7.564;2023-04-30T08:16:07;101008.97;;;14.35;54.71
46223;BME280;31943;51.410;7.564;2023-04-30T08:18:33;101003.75;;;14.41;54.80
46223;BME280;31943;51.410;7.564;2023-04-30T08:21:00;100997.66;;;14.43;54.66
46223;BME280;31943;51.410;7.564;2023-04-30T08:23:27;100998.66;;;14.64;54.19
46223;BME280;31943;51.410;7.564;2023-04-30T08:25:54;100993.47;;;14.79;53.52
46223;BME280;31943;51.410;7.564;2023-04-30T08:28:20;100998.78;;;14.93;53.47
46223;BME280;31943;51.410;7.564;2023-04-30T08:30:46;100986.59;;;15.08;53.72
46223;BME280;31943;51.410;7.564;2023-04-30T08:33:13;100991.03;;;15.30;53.44
46223;BME280;31943;51.410;7.564;2023-04-30T08:35:40;100996.31;;;15.38;52.01
46223;BME280;31943;51.410;7.564;2023-04-30T08:38:08;100994.56;;;15.40;51.66
46223;BME280;31943;51.410;7.564;2023-04-30T08:40:35;100991.88;;;15.18;51.77
46223;BME280;31943;51.410;7.564;2023-04-30T08:43:04;100988.38;;;15.18;52.32
46223;BME280;31943;51.410;7.564;2023-04-30T08:45:31;100992.78;;;15.34;52.58
46223;BME280;31943;51.410;7.564;2023-04-30T08:47:58;100997.22;;;15.51;52.31
46223;BME280;31943;51.410;7.564;2023-04-30T08:50:27;100996.38;;;15.67;51.49
46223;BME280;31943;51.410;7.564;2023-04-30T08:52:53;100999.03;;;15.86;51.29
46223;BME280;31943;51.410;7.564;2023-04-30T08:55:19;100994.66;;;15.92;50.85
46223;BME280;31943;51.410;7.564;2023-04-30T08:57:46;100999.03;;;15.93;50.21
46223;BME280;31943;51.410;7.564;2023-04-30T09:00:12;101000.78;;;15.87;50.43
46223;BME280;31943;51.410;7.564;2023-04-30T09:02:39;100999.91;;;15.78;50.04
46223;BME280;31943;51.410;7.564;2023-04-30T09:05:08;100993.78;;;15.90;50.73
46223;BME280;31943;51.410;7.564;2023-04-30T09:07:38;100992.91;;;16.04;49.36
46223;BME280;31943;51.410;7.564;2023-04-30T09:10:14;100990.28;;;15.96;48.48
46223;BME280;31943;51.410;7.564;2023-04-30T09:12:41;100993.75;;;15.93;49.16
46223;BME280;31943;51.410;7.564;2023-04-30T09:15:08;100988.47;;;15.72;48.44
46223;BME280;31943;51.410;7.564;2023-04-30T09:17:34;100992.03;;;15.78;48.25
46223;BME280;31943;51.410;7.564;2023-04-30T09:20:07;100981.50;;;15.83;48.61
46223;BME280;31943;51.410;7.564;2023-04-30T09:22:34;100986.75;;;16.08;47.94
46223;BME280;31943;51.410;7.564;2023-04-30T09:25:02;100986.75;;;16.15;47.23
46223;BME280;31943;51.410;7.564;2023-04-30T09:27:29;100982.31;;;16.27;47.76
46223;BME280;31943;51.410;7.564;2023-04-30T09:29:55;100984.94;;;16.34;47.16
46223;BME280;31943;51.410;7.564;2023-04-30T09:32:21;100970.88;;;16.38;46.44
46223;BME280;31943;51.410;7.564;2023-04-30T09:34:47;100977.00;;;16.50;46.24
46223;BME280;31943;51.410;7.564;2023-04-30T09:37:13;100974.41;;;16.47;45.71
46223;BME280;31943;51.410;7.564;2023-04-30T09:39:47;100974.41;;;16.37;46.38
46223;BME280;31943;51.410;7.564;2023-04-30T09:42:14;100973.53;;;16.40;45.82
46223;BME280;31943;51.410;7.564;2023-04-30T09:44:41;100980.56;;;16.33;45.82
46223;BME280;31943;51.410;7.564;2023-04-30T09:47:10;100979.72;;;16.33;46.60
46223;BME280;31943;51.410;7.564;2023-04-30T09:49:37;100979.66;;;16.42;47.26
46223;BME280;31943;51.410;7.564;2023-04-30T09:52:03;100980.56;;;16.49;47.80
46223;BME280;31943;51.410;7.564;2023-04-30T09:54:30;100969.91;;;16.73;48.32
46223;BME280;31943;51.410;7.564;2023-04-30T09:56:57;100975.13;;;16.93;47.84
46223;BME280;31943;51.410;7.564;2023-04-30T09:59:27;100957.53;;;17.02;47.88
46223;BME280;31943;51.410;7.564;2023-04-30T10:01:54;100963.59;;;17.13;46.87
46223;BME280;31943;51.410;7.564;2023-04-30T10:04:22;100956.56;;;17.16;47.52
46223;BME280;31943;51.410;7.564;2023-04-30T10:06:51;100953.81;;;17.35;46.71
46223;BME280;31943;51.410;7.564;2023-04-30T10:09:20;100944.09;;;17.42;45.96
46223;BME280;31943;51.410;7.564;2023-04-30T10:11:49;100942.31;;;17.47;46.32
46223;BME280;31943;51.410;7.564;2023-04-30T10:14:16;100951.03;;;17.53;45.82
46223;BME280;31943;51.410;7.564;2023-04-30T10:16:53;100939.53;;;17.64;45.27
46223;BME280;31943;51.410;7.564;2023-04-30T10:19:22;100934.22;;;17.67;45.86
46223;BME280;31943;51.410;7.564;2023-04-30T10:21:50;100930.75;;;17.63;45.24
46223;BME280;31943;51.410;7.564;2023-04-30T10:24:19;100940.31;;;17.73;44.67
46223;BME280;31943;51.410;7.564;2023-04-30T10:26:47;100933.25;;;17.77;43.60
46223;BME280;31943;51.410;7.564;2023-04-30T10:29:17;100935.09;;;17.66;43.41
46223;BME280;31943;51.410;7.564;2023-04-30T10:31:46;100937.66;;;17.76;44.45
46223;BME280;31943;51.410;7.564;2023-04-30T10:34:18;100933.16;;;17.94;44.26
46223;BME280;31943;51.410;7.564;2023-04-30T10:36:49;100938.38;;;18.00;44.59
46223;BME280;31943;51.410;7.564;2023-04-30T10:39:17;100927.66;;;18.12;45.26
46223;BME280;31943;51.410;7.564;2023-04-30T10:41:44;100932.00;;;18.21;44.79
46223;BME280;31943;51.410;7.564;2023-04-30T10:44:10;100925.63;;;18.39;44.26
46223;BME280;31943;51.410;7.564;2023-04-30T10:46:38;100919.34;;;18.49;44.09
46223;BME280;31943;51.410;7.564;2023-04-30T10:49:05;100919.25;;;18.55;43.48
46223;BME280;31943;51.410;7.564;2023-04-30T10:51:45;100919.56;;;18.31;44.91
46223;BME280;31943;51.410;7.564;2023-04-30T10:54:13;100912.50;;;18.33;45.33
46223;BME280;31943;51.410;7.564;2023-04-30T10:56:40;100914.09;;;18.46;45.13
46223;BME280;31943;51.410;7.564;2023-04-30T10:59:15;100902.56;;;18.52;45.23
46223;BME280;31943;51.410;7.564;2023-04-30T11:01:54;100907.00;;;18.50;44.79
